Time;durP1;ratioP1;P1;durP2;ratioP2;P2;SDS_P1;SDS_P2;PMS_P1;PMS_P2;Temp;Humidity;BMP_temperature;BMP_pressure;BME280_temperature;BME280_humidity;BME280_pressure;Samples;Min_cycle;Max_cycle;Signal;HPM_P1;HPM_P2
2022/02/04 00:10:01;;;;;;;2.78;1.80;;;7.90;99.90;;;;;;4976837;28;20035;-78
2022/02/04 00:20:53;;;;;;;6.65;2.90;;;8.00;99.90;;;;;;4976514;28;20455;-76
2022/02/04 00:23:23;;;;;;;3.20;1.98;;;8.00;99.90;;;;;;4962286;28;20019;-76
2022/02/04 00:28:29;;;;;;;4.13;2.10;;;7.90;99.90;;;;;;4976768;28;20114;-77
2022/02/04 00:31:13;;;;;;;5.15;2.50;;;7.90;99.90;;;;;;4957504;28;20479;-78
2022/02/04 00:33:41;;;;;;;3.97;2.40;;;7.90;99.90;;;;;;4959856;28;20035;-76
2022/02/04 00:36:17;;;;;;;6.60;2.25;;;7.90;99.90;;;;;;4973209;28;20041;-76
2022/02/04 00:38:47;;;;;;;5.22;2.13;;;7.90;99.90;;;;;;4971900;28;20058;-77
2022/02/04 00:41:15;;;;;;;4.35;2.42;;;7.90;99.90;;;;;;4965479;28;20125;-75
2022/02/04 00:43:42;;;;;;;3.25;2.20;;;8.00;99.90;;;;;;4958351;28;20023;-75
2022/02/04 00:46:14;;;;;;;4.72;1.92;;;7.90;99.90;;;;;;4955194;28;20026;-76
2022/02/04 00:48:51;;;;;;;;;;;7.90;99.90;;;;;;4959006;28;20049;-77
2022/02/04 00:54:04;;;;;;;2.33;1.80;;;7.90;99.90;;;;;;4975054;28;20106;-77
2022/02/04 01:26:40;;;;;;;3.35;2.20;;;7.90;99.90;;;;;;4972629;28;20119;-75
2022/02/04 01:29:07;;;;;;;3.15;1.80;;;7.80;99.90;;;;;;4957127;28;20218;-76
2022/02/04 01:31:33;;;;;;;2.67;1.80;;;7.80;99.90;;;;;;4957578;28;20023;-75
2022/02/04 01:33:58;;;;;;;3.95;2.40;;;7.80;99.90;;;;;;4957400;28;20395;-75
2022/02/04 01:36:24;;;;;;;2.80;2.10;;;7.80;99.90;;;;;;4957776;28;20055;-75
2022/02/04 01:38:50;;;;;;;4.72;1.75;;;7.80;99.90;;;;;;4957299;28;20125;-76
2022/02/04 01:41:15;;;;;;;3.40;2.00;;;7.80;99.90;;;;;;4957788;28;20061;-75
2022/02/04 01:43:42;;;;;;;3.55;2.10;;;7.80;99.90;;;;;;4957767;28;20037;-75
2022/02/04 01:46:09;;;;;;;2.95;1.88;;;7.80;99.90;;;;;;4956932;28;20031;-75
2022/02/04 01:48:36;;;;;;;4.22;2.40;;;7.80;99.90;;;;;;4957703;28;20479;-75
2022/02/04 01:51:03;;;;;;;2.75;2.00;;;7.70;99.90;;;;;;4957119;28;20103;-76
2022/02/04 01:53:29;;;;;;;5.35;2.05;;;7.70;99.90;;;;;;4957877;28;20045;-76
2022/02/04 01:56:04;;;;;;;4.93;2.17;;;7.70;99.90;;;;;;4957174;28;20452;-76
2022/02/04 01:58:30;;;;;;;5.15;2.50;;;7.70;99.90;;;;;;4957610;28;20031;-75
2022/02/04 02:00:56;;;;;;;4.30;2.45;;;7.70;99.90;;;;;;4974298;28;20049;-76
2022/02/04 02:03:22;;;;;;;3.30;2.25;;;7.70;99.90;;;;;;4956861;28;20077;-76
2022/02/04 02:05:49;;;;;;;5.68;2.78;;;7.70;99.90;;;;;;4957358;28;20383;-76
2022/02/04 02:08:17;;;;;;;5.78;2.60;;;7.70;99.90;;;;;;4974370;28;20468;-75
2022/02/04 02:10:45;;;;;;;4.20;2.92;;;7.70;99.90;;;;;;4957313;28;20041;-75
2022/02/04 02:13:55;;;;;;;5.65;2.90;;;7.60;99.90;;;;;;4956701;28;20094;-75
2022/02/04 02:51:35;;;;;;;9.98;5.00;;;7.40;99.90;;;;;;4973874;28;20026;-76
2022/02/04 02:53:56;;;;;;;7.23;4.60;;;7.40;99.90;;;;;;4966114;28;20039;-75
2022/02/04 03:01:22;;;;;;;6.85;4.28;;;7.40;99.90;;;;;;4974357;28;20043;-76
2022/02/04 03:03:53;;;;;;;7.55;4.35;;;7.50;99.90;;;;;;4956609;28;20159;-76
2022/02/04 03:06:19;;;;;;;6.32;3.88;;;7.50;99.90;;;;;;4956867;28;20482;-76
2022/02/04 03:08:44;;;;;;;7.25;4.32;;;7.50;99.90;;;;;;4956739;28;20034;-76
2022/02/04 03:11:10;;;;;;;7.75;3.88;;;7.60;99.90;;;;;;4956272;28;20027;-75
2022/02/04 03:13:35;;;;;;;8.10;4.30;;;7.60;99.90;;;;;;4956729;28;20031;-75
2022/02/04 03:16:06;;;;;;;6.38;3.90;;;7.60;99.90;;;;;;4956304;28;20027;-76
2022/02/04 03:18:35;;;;;;;7.50;4.20;;;7.60;99.90;;;;;;4956593;28;20491;-75
2022/02/04 03:21:08;;;;;;;7.90;4.47;;;7.60;99.90;;;;;;4956156;28;20031;-76
2022/02/04 03:23:37;;;;;;;5.82;3.92;;;7.60;99.90;;;;;;4956865;28;20054;-76
2022/02/04 03:26:10;;;;;;;7.18;4.00;;;7.60;99.90;;;;;;4955953;28;20476;-76
2022/02/04 03:28:36;;;;;;;6.43;3.88;;;7.60;99.90;;;;;;4974009;28;20027;-75
2022/02/04 03:31:01;;;;;;;7.88;4.43;;;7.60;99.90;;;;;;4956043;28;20038;-76
2022/02/04 03:33:29;;;;;;;7.30;4.30;;;7.50;99.90;;;;;;4956205;28;20039;-75
2022/02/04 03:35:55;;;;;;;6.25;4.15;;;7.50;99.90;;;;;;4955942;28;20476;-77
2022/02/04 03:38:21;;;;;;;7.28;4.00;;;7.60;99.90;;;;;;4973671;28;20535;-75
2022/02/04 03:40:47;;;;;;;5.80;3.92;;;7.50;99.90;;;;;;4956440;28;20027;-76
2022/02/04 03:43:13;;;;;;;6.20;3.88;;;7.60;99.90;;;;;;4976386;28;20026;-76
2022/02/04 03:45:38;;;;;;;6.55;4.10;;;7.60;99.90;;;;;;4959884;28;20033;-76
2022/02/04 03:48:05;;;;;;;6.68;4.10;;;7.60;99.90;;;;;;4959377;28;20034;-75
2022/02/04 03:50:30;;;;;;;6.68;3.67;;;7.60;99.90;;;;;;4976874;28;20436;-75
2022/02/04 03:52:56;;;;;;;5.85;3.72;;;7.60;99.90;;;;;;4976600;28;20027;-76
2022/02/04 03:55:22;;;;;;;5.53;3.60;;;7.60;99.90;;;;;;4976977;28;20034;-75
2022/02/04 03:57:47;;;;;;;7.57;3.50;;;7.60;99.90;;;;;;4959627;28;20031;-75
2022/02/04 04:00:16;;;;;;;6.88;3.63;;;7.50;99.90;;;;;;4959294;28;20479;-75
2022/02/04 04:02:42;;;;;;;5.97;3.75;;;7.60;99.90;;;;;;4976521;28;20488;-75
2022/02/04 04:05:10;;;;;;;6.18;3.15;;;7.50;99.90;;;;;;4959116;28;20041;-76
2022/02/04 04:07:41;;;;;;;5.35;3.53;;;7.50;99.90;;;;;;4959805;28;20054;-75
2022/02/04 04:10:11;;;;;;;5.60;3.50;;;7.50;99.90;;;;;;4959361;28;20085;-76
2022/02/04 04:12:37;;;;;;;6.20;3.53;;;7.50;99.90;;;;;;4976892;28;20308;-77
2022/02/04 04:15:07;;;;;;;5.43;3.60;;;7.50;99.90;;;;;;4959178;28;20436;-76
2022/02/04 04:17:39;;;;;;;6.40;3.63;;;7.40;99.90;;;;;;4959826;28;20034;-76
2022/02/04 04:20:07;;;;;;;5.93;3.67;;;7.40;99.90;;;;;;4976529;28;20445;-76
2022/02/04 04:22:33;;;;;;;7.43;4.03;;;7.40;99.90;;;;;;4959456;28;20518;-76
2022/02/04 04:24:58;;;;;;;7.07;4.18;;;7.40;99.90;;;;;;4959009;28;20027;-76
2022/02/04 04:27:24;;;;;;;6.63;3.60;;;7.40;99.90;;;;;;4959304;28;20055;-75
2022/02/04 04:29:50;;;;;;;8.73;4.20;;;7.40;99.90;;;;;;4959081;28;20023;-75
2022/02/04 04:32:16;;;;;;;6.90;3.88;;;7.30;99.90;;;;;;4958641;28;20530;-74
2022/02/04 04:34:41;;;;;;;5.93;3.75;;;7.30;99.90;;;;;;4976043;28;20043;-75
2022/02/04 04:37:07;;;;;;;7.05;3.65;;;7.30;99.90;;;;;;4975799;28;20027;-75
2022/02/04 04:39:42;;;;;;;7.40;4.20;;;7.30;99.90;;;;;;4958948;28;20043;-76
2022/02/04 05:28:34;;;;;;;4.27;2.70;;;7.30;99.90;;;;;;4974821;28;20045;-75
2022/02/04 05:31:01;;;;;;;5.32;2.80;;;7.30;99.90;;;;;;4958132;28;20040;-75
2022/02/04 05:33:26;;;;;;;4.30;2.55;;;7.30;99.90;;;;;;4958038;28;20026;-75
2022/02/04 05:35:52;;;;;;;6.40;2.97;;;7.30;99.90;;;;;;4957899;28;20039;-76
2022/02/04 05:38:20;;;;;;;4.70;2.58;;;7.30;99.90;;;;;;4957371;28;20047;-75
2022/02/04 05:40:48;;;;;;;4.32;2.40;;;7.30;99.90;;;;;;4957811;28;20031;-75
2022/02/04 05:43:21;;;;;;;4.75;2.70;;;7.30;99.90;;;;;;4957349;28;20027;-76
2022/02/04 05:46:01;;;;;;;3.55;2.65;;;7.20;99.90;;;;;;4957986;28;20030;-76
2022/02/04 05:48:28;;;;;;;4.13;3.05;;;7.20;99.90;;;;;;4973641;28;20064;-75
2022/02/04 05:51:08;;;;;;;5.17;3.00;;;7.20;99.90;;;;;;4957720;28;20033;-76
2022/02/04 05:53:43;;;;;;;4.75;3.00;;;7.20;99.90;;;;;;4974945;28;20022;-75
2022/02/04 05:56:27;;;;;;;5.10;2.65;;;7.20;99.90;;;;;;4957261;28;20380;-74
2022/02/04 05:59:03;;;;;;;5.50;3.00;;;7.10;99.90;;;;;;4957580;28;20073;-74
2022/02/04 06:02:20;;;;;;;4.73;3.03;;;7.20;99.90;;;;;;4957557;28;20061;-75
2022/02/04 06:04:30;;;;;;;5.38;3.05;;;7.20;99.90;;;;;;4966061;28;20111;-75
2022/02/04 06:14:45;;;;;;;6.67;3.23;;;7.00;99.90;;;;;;4974595;28;20035;-75
2022/02/04 06:22:40;;;;;;;5.60;2.87;;;7.00;99.90;;;;;;4974666;28;20084;-76
2022/02/04 06:25:08;;;;;;;5.03;3.03;;;7.00;99.90;;;;;;4974179;28;20031;-76
2022/02/04 06:27:35;;;;;;;4.70;3.00;;;7.00;99.90;;;;;;4957320;28;20120;-76
2022/02/04 06:30:02;;;;;;;4.70;2.90;;;7.00;99.90;;;;;;4957089;28;20498;-76
2022/02/04 06:32:30;;;;;;;5.40;2.90;;;7.00;99.90;;;;;;4956595;28;20046;-75
2022/02/04 06:34:55;;;;;;;5.80;2.97;;;7.00;99.90;;;;;;4957152;28;20125;-76
2022/02/04 06:37:21;;;;;;;4.50;2.95;;;7.10;99.90;;;;;;4956379;28;20062;-76
2022/02/04 06:39:47;;;;;;;5.93;3.60;;;7.10;99.90;;;;;;4956720;28;20038;-74
2022/02/04 06:42:21;;;;;;;4.95;2.88;;;7.00;99.90;;;;;;4956270;28;20027;-75
2022/02/04 06:44:46;;;;;;;5.23;3.10;;;7.00;99.90;;;;;;4974166;28;20031;-74
2022/02/04 06:47:12;;;;;;;5.00;3.10;;;7.00;99.90;;;;;;4956399;28;20126;-75
2022/02/04 06:49:37;;;;;;;5.90;3.53;;;7.10;99.90;;;;;;4956892;28;20125;-74
2022/02/04 06:52:04;;;;;;;6.37;3.43;;;7.10;99.90;;;;;;4956836;28;20031;-74
2022/02/04 06:54:30;;;;;;;4.63;3.00;;;7.10;99.90;;;;;;4973570;28;20528;-74
2022/02/04 06:56:56;;;;;;;4.97;3.27;;;7.10;99.90;;;;;;4956877;28;20057;-74
2022/02/04 06:59:21;;;;;;;6.73;3.33;;;7.10;99.90;;;;;;4956250;28;20484;-74
2022/02/04 07:01:47;;;;;;;6.87;3.00;;;7.00;99.90;;;;;;4973822;28;20028;-74
2022/02/04 07:04:13;;;;;;;8.77;3.33;;;7.00;99.90;;;;;;4956219;28;20035;-74
2022/02/04 07:06:43;;;;;;;6.37;3.50;;;7.00;99.90;;;;;;4956877;28;20028;-74
2022/02/04 07:11:53;;;;;;;7.03;4.32;;;6.90;99.90;;;;;;4973820;28;20035;-74
2022/02/04 07:14:34;;;;;;;;;;;6.90;99.90;;;;;;4956237;28;20034;-75
2022/02/04 07:17:17;;;;;;;7.03;3.90;;;6.90;99.90;;;;;;4975206;28;19910;-75
2022/02/04 07:22:15;;;;;;;9.73;4.37;;;7.00;99.90;;;;;;4977242;28;20027;-75
2022/02/04 07:24:40;;;;;;;6.17;3.97;;;7.00;99.90;;;;;;4960233;28;20031;-75
2022/02/04 07:27:06;;;;;;;5.53;3.50;;;7.00;99.90;;;;;;4960506;28;20027;-77
2022/02/04 07:29:33;;;;;;;7.63;3.97;;;6.90;99.90;;;;;;4959828;28;20035;-75
2022/02/04 07:32:04;;;;;;;8.83;4.70;;;6.90;99.90;;;;;;4977295;28;20026;-75
2022/02/04 07:35:01;;;;;;;6.40;4.20;;;6.90;99.90;;;;;;4959578;28;20027;-75
2022/02/04 07:43:02;;;;;;;6.93;4.47;;;6.80;99.90;;;;;;4977412;28;20083;-75
2022/02/04 07:45:28;;;;;;;7.57;4.50;;;6.80;99.90;;;;;;4959278;28;20023;-76
2022/02/04 07:47:54;;;;;;;6.20;4.10;;;6.80;99.90;;;;;;4959897;28;20066;-76
2022/02/04 07:50:23;;;;;;;7.07;4.30;;;6.80;99.90;;;;;;4959720;28;20054;-76
2022/02/04 07:52:52;;;;;;;8.30;4.57;;;6.90;99.90;;;;;;4977307;28;20018;-75
2022/02/04 07:55:18;;;;;;;8.53;4.30;;;6.90;99.90;;;;;;4959360;28;20448;-75
2022/02/04 07:57:44;;;;;;;7.90;4.30;;;6.90;99.90;;;;;;4959575;28;20030;-75
2022/02/04 08:00:14;;;;;;;6.97;4.10;;;6.90;99.90;;;;;;4975113;28;20034;-79
2022/02/04 08:02:40;;;;;;;7.50;4.40;;;6.90;99.90;;;;;;4959044;28;20047;-76
2022/02/04 08:05:08;;;;;;;6.97;4.27;;;6.90;99.90;;;;;;4959417;28;20037;-76
2022/02/04 08:07:45;;;;;;;8.20;4.00;;;7.00;99.90;;;;;;4958901;28;20035;-76
2022/02/04 08:49:26;;;;;;;8.07;4.33;;;7.20;99.90;;;;;;4974008;28;20118;-75
2022/02/04 08:56:59;;;;;;;7.97;4.77;;;7.20;99.90;;;;;;4975573;28;20038;-76
2022/02/04 08:59:45;;;;;;;9.27;4.77;;;7.20;99.90;;;;;;4957611;28;20031;-75
2022/02/04 09:02:17;;;;;;;9.57;4.50;;;7.30;99.90;;;;;;4956958;28;20051;-75
2022/02/04 09:04:46;;;;;;;;;;;7.30;99.90;;;;;;4958406;28;20484;-75
2022/02/04 09:07:15;;;;;;;7.10;4.33;;;7.40;99.90;;;;;;4956083;28;19941;-75
2022/02/04 09:09:57;;;;;;;8.50;4.77;;;7.40;99.90;;;;;;4957768;28;20043;-75
2022/02/04 09:20:09;;;;;;;7.00;3.95;;;7.60;99.90;;;;;;4975447;28;20042;-77
2022/02/04 09:22:47;;;;;;;5.97;3.50;;;7.60;99.90;;;;;;4957648;28;20038;-76
2022/02/04 09:25:13;;;;;;;7.10;3.92;;;7.70;99.90;;;;;;4958259;28;20030;-77
2022/02/04 09:27:39;;;;;;;8.43;4.75;;;7.70;99.90;;;;;;4956761;28;20170;-77
2022/02/04 09:30:07;;;;;;;7.07;3.72;;;7.80;99.90;;;;;;4975933;28;20042;-80
2022/02/04 09:32:36;;;;;;;6.68;3.30;;;7.70;99.90;;;;;;4958261;28;20031;-78
2022/02/04 09:35:03;;;;;;;7.70;3.53;;;7.70;99.90;;;;;;4958794;28;20102;-80
2022/02/04 09:37:30;;;;;;;5.78;3.40;;;7.70;99.90;;;;;;4958213;28;20031;-80
2022/02/04 09:39:56;;;;;;;6.28;3.67;;;7.70;99.90;;;;;;4958464;28;20062;-78
2022/02/04 09:42:21;;;;;;;4.63;3.08;;;7.80;99.90;;;;;;4957898;28;20065;-77
2022/02/04 09:44:47;;;;;;;5.95;3.53;;;7.70;99.90;;;;;;4975754;28;20069;-78
2022/02/04 09:47:25;;;;;;;5.25;3.13;;;7.80;99.90;;;;;;4951052;28;20069;-80
2022/02/04 09:49:58;;;;;;;6.13;3.28;;;7.70;99.90;;;;;;4957549;28;20026;-79
2022/02/04 10:09:06;;;;;;;5.38;2.80;;;8.10;99.90;;;;;;4974981;28;20038;-80
2022/02/04 10:17:08;;;;;;;4.10;2.50;;;8.20;99.90;;;;;;4963938;28;20114;-79
2022/02/04 10:22:27;;;;;;;4.78;2.55;;;8.40;99.90;;;;;;4973360;28;20035;-77
2022/02/04 10:25:20;;;;;;;5.07;2.17;;;8.50;99.90;;;;;;4957373;28;20416;-78
2022/02/04 10:27:46;;;;;;;3.83;1.83;;;8.50;99.90;;;;;;4971922;28;20093;-78
2022/02/04 10:30:17;;;;;;;3.72;1.77;;;8.40;99.90;;;;;;4974420;28;20109;-79
2022/02/04 10:32:48;;;;;;;2.97;1.67;;;8.30;99.90;;;;;;4945245;28;20027;-78
2022/02/04 10:35:26;;;;;;;2.90;1.85;;;8.40;99.90;;;;;;4974178;28;20436;-77
2022/02/04 10:46:24;;;;;;;2.42;1.45;;;8.70;99.90;;;;;;4974339;28;20044;-78
2022/02/04 10:49:31;;;;;;;1.65;1.10;;;8.70;99.90;;;;;;4957235;28;20033;-78
2022/02/04 11:02:33;;;;;;;1.17;0.80;;;8.60;99.90;;;;;;4973910;28;20066;-77
2022/02/04 11:52:45;;;;;;;2.78;1.20;;;8.70;99.90;;;;;;4973689;28;20496;-78
2022/02/04 11:55:10;;;;;;;1.80;1.10;;;8.70;99.90;;;;;;4918494;29;20036;-79
2022/02/04 11:57:53;;;;;;;1.48;0.82;;;8.70;99.90;;;;;;4916679;29;20036;-78
2022/02/04 12:00:18;;;;;;;1.40;0.90;;;8.70;99.90;;;;;;4902804;29;20032;-78
2022/02/04 12:02:45;;;;;;;2.97;1.08;;;8.70;99.90;;;;;;4931711;29;20059;-79
2022/02/04 12:05:25;;;;;;;1.42;0.90;;;8.80;99.90;;;;;;4919699;29;20090;-79
2022/02/04 12:08:10;;;;;;;1.05;0.80;;;8.60;99.90;;;;;;4919326;29;20024;-78
2022/02/04 12:10:44;;;;;;;2.03;0.88;;;8.70;99.90;;;;;;4936125;29;20055;-78
2022/02/04 12:13:10;;;;;;;0.70;0.57;;;8.60;99.90;;;;;;4936402;29;20114;-79
2022/02/04 12:15:46;;;;;;;1.27;0.60;;;8.70;99.90;;;;;;4935978;29;20477;-77
2022/02/04 12:18:48;;;;;;;1.40;0.80;;;8.80;99.90;;;;;;4928333;29;20071;-78
2022/02/04 12:21:17;;;;;;;1.60;0.60;;;8.80;99.90;;;;;;4919985;29;20607;-77
2022/02/04 12:23:46;;;;;;;2.55;0.57;;;8.80;99.90;;;;;;4919534;29;20096;-76
2022/02/04 12:26:17;;;;;;;1.08;0.52;;;8.80;99.90;;;;;;4945988;28;20035;-77
2022/02/04 12:28:51;;;;;;;0.60;0.40;;;8.90;99.90;;;;;;4959165;28;20053;-78
2022/02/04 12:31:31;;;;;;;0.82;0.40;;;9.00;99.90;;;;;;4958720;28;20038;-76
2022/02/04 12:34:13;;;;;;;2.03;0.68;;;9.20;99.90;;;;;;4956842;28;20384;-77
2022/02/04 12:36:44;;;;;;;0.55;0.30;;;9.40;99.90;;;;;;4955972;28;20034;-77
2022/02/04 12:39:17;;;;;;;0.40;0.40;;;9.30;99.90;;;;;;4958602;28;20369;-77
2022/02/04 12:41:46;;;;;;;0.68;0.38;;;9.20;99.90;;;;;;4956553;28;20030;-77
2022/02/04 12:44:14;;;;;;;0.30;0.25;;;9.20;99.90;;;;;;4957795;28;20114;-78
2022/02/04 12:46:46;;;;;;;0.38;0.20;;;9.20;99.90;;;;;;4958030;28;20035;-77
2022/02/04 12:49:14;;;;;;;0.77;0.30;;;9.20;99.40;;;;;;4958406;28;20031;-79
2022/02/04 12:54:37;;;;;;;0.65;0.32;;;9.20;99.20;;;;;;4962325;28;20023;-79
2022/02/04 13:08:17;;;;;;;0.30;0.10;;;9.00;98.60;;;;;;4969274;28;20134;-77
2022/02/04 13:10:44;;;;;;;0.17;0.10;;;9.00;98.60;;;;;;4957752;28;20307;-77
2022/02/04 13:13:14;;;;;;;0.40;0.15;;;9.10;98.20;;;;;;4958344;28;20063;-77
2022/02/04 13:15:41;;;;;;;0.20;0.20;;;9.10;98.50;;;;;;4974839;28;20453;-77
2022/02/04 13:18:15;;;;;;;0.20;0.10;;;9.00;98.70;;;;;;4958071;28;20460;-77
2022/02/04 13:20:44;;;;;;;0.20;0.10;;;9.00;99.10;;;;;;4957926;28;20027;-77
2022/02/04 13:23:14;;;;;;;0.15;0.10;;;9.00;98.80;;;;;;4958164;28;20034;-77
2022/02/04 13:25:45;;;;;;;0.35;0.20;;;9.00;98.30;;;;;;4957605;28;20038;-77
2022/02/04 13:28:44;;;;;;;1.67;0.20;;;8.90;98.60;;;;;;4975606;28;20026;-77
2022/02/04 13:31:22;;;;;;;0.52;0.22;;;8.90;99.00;;;;;;4936674;28;20069;-77
2022/02/04 13:33:50;;;;;;;0.57;0.30;;;8.90;99.50;;;;;;4957563;28;20031;-77
2022/02/04 13:36:28;;;;;;;1.20;0.20;;;8.90;99.70;;;;;;4976353;28;20480;-77
2022/02/04 13:39:24;;;;;;;0.20;0.17;;;8.90;99.60;;;;;;4952884;28;20097;-79
2022/02/04 14:00:56;;;;;;;0.73;0.20;;;8.80;99.90;;;;;;4976282;28;20026;-76
2022/02/04 14:03:26;;;;;;;0.30;0.20;;;8.80;99.90;;;;;;4964084;28;20043;-76
2022/02/04 14:06:02;;;;;;;0.10;0.10;;;8.80;99.90;;;;;;4951090;28;20031;-76
2022/02/04 14:08:37;;;;;;;0.10;0.10;;;8.80;99.70;;;;;;4958695;28;20023;-75
2022/02/04 14:11:07;;;;;;;0.17;0.10;;;8.80;99.30;;;;;;4957945;28;20030;-76
2022/02/04 14:13:33;;;;;;;1.20;0.10;;;8.80;99.90;;;;;;4953815;28;20105;-76
2022/02/04 14:16:05;;;;;;;0.50;0.17;;;8.80;99.50;;;;;;4957529;28;20479;-75
2022/02/04 14:18:31;;;;;;;0.57;0.10;;;8.80;99.70;;;;;;4957792;28;20034;-75
2022/02/04 14:20:58;;;;;;;0.20;0.10;;;8.90;99.90;;;;;;4957615;28;20438;-75
2022/02/04 14:23:24;;;;;;;0.55;0.25;;;8.90;99.90;;;;;;4956992;28;20027;-75
2022/02/04 14:26:03;;;;;;;0.50;0.20;;;8.90;99.90;;;;;;4955536;28;20023;-76
2022/02/04 14:52:40;;;;;;;0.88;0.30;;;8.90;99.90;;;;;;4973780;28;20472;-76
2022/02/04 15:03:21;;;;;;;0.30;0.10;;;8.90;99.90;;;;;;4973867;28;20097;-77
2022/02/04 15:05:47;;;;;;;0.50;0.20;;;8.90;99.90;;;;;;4972749;28;20039;-76
2022/02/04 15:08:17;;;;;;;0.38;0.20;;;8.90;99.90;;;;;;4956535;28;20097;-76
2022/02/04 15:10:45;;;;;;;0.77;0.30;;;8.90;99.90;;;;;;4973473;28;20023;-76
2022/02/04 15:13:14;;;;;;;0.63;0.30;;;8.90;99.90;;;;;;4956714;28;20451;-75
2022/02/04 15:15:40;;;;;;;0.77;0.13;;;8.90;99.90;;;;;;4956147;28;20470;-76
2022/02/04 15:18:06;;;;;;;0.50;0.30;;;8.90;99.90;;;;;;4956169;28;20138;-75
2022/02/04 15:20:32;;;;;;;0.38;0.30;;;9.00;99.90;;;;;;4973179;28;20162;-75
2022/02/04 15:22:58;;;;;;;0.55;0.35;;;9.00;99.90;;;;;;4973857;28;20028;-75
2022/02/04 15:25:24;;;;;;;0.82;0.30;;;9.00;99.90;;;;;;4956028;28;20035;-75
2022/02/04 15:30:33;;;;;;;0.80;0.32;;;9.10;99.90;;;;;;4973525;28;20039;-87
2022/02/04 15:32:59;;;;;;;1.07;0.50;;;9.00;99.90;;;;;;4956444;28;20454;-76
2022/02/04 15:35:25;;;;;;;1.42;0.40;;;9.00;99.90;;;;;;4956733;28;20110;-76
2022/02/04 15:37:51;;;;;;;0.95;0.55;;;9.00;99.90;;;;;;4957031;28;20027;-75
2022/02/04 15:40:17;;;;;;;1.00;0.30;;;9.00;99.90;;;;;;4960169;28;20057;-76
2022/02/04 15:42:49;;;;;;;0.20;0.20;;;9.00;99.90;;;;;;4977169;28;20380;-76
2022/02/04 15:45:40;;;;;;;1.55;0.40;;;9.00;99.90;;;;;;4959835;28;20034;-75
2022/02/04 15:50:43;;;;;;;0.73;0.40;;;8.90;99.90;;;;;;4977128;28;20038;-76
2022/02/04 15:53:25;;;;;;;0.88;0.30;;;8.90;99.90;;;;;;4959886;28;20073;-76
2022/02/04 15:58:31;;;;;;;0.80;0.68;;;8.90;99.90;;;;;;4976919;28;20042;-75
2022/02/04 16:05:54;;;;;;;0.88;0.50;;;8.90;99.90;;;;;;4975153;28;20098;-77
2022/02/04 16:08:21;;;;;;;0.77;0.50;;;8.80;99.90;;;;;;4960715;28;20062;-76
2022/02/04 16:11:11;;;;;;;0.50;0.38;;;8.80;99.90;;;;;;4959184;28;20027;-77
2022/02/04 16:14:05;;;;;;;0.65;0.30;;;8.80;99.90;;;;;;4960649;28;20046;-75
2022/02/04 16:16:30;;;;;;;0.55;0.40;;;8.80;99.90;;;;;;4976005;28;20476;-76
2022/02/04 16:24:39;;;;;;;0.95;0.35;;;8.80;99.90;;;;;;4945746;28;20067;-75
2022/02/04 16:28:39;;;;;;;0.32;0.20;;;8.80;99.90;;;;;;4958348;28;20559;-75
2022/02/04 16:29:57;;;;;;;0.68;0.40;;;8.70;99.90;;;;;;4974908;28;20114;-75
2022/02/04 16:32:23;;;;;;;0.77;0.30;;;8.70;99.90;;;;;;4959628;28;20034;-76
2022/02/04 16:34:54;;;;;;;0.75;0.47;;;8.70;99.90;;;;;;4959153;28;20023;-75
2022/02/04 16:37:30;;;;;;;1.02;0.32;;;8.70;99.90;;;;;;4957612;28;20073;-76
2022/02/04 16:40:00;;;;;;;0.35;0.20;;;8.70;99.90;;;;;;4960139;28;20035;-75
2022/02/04 16:42:28;;;;;;;0.52;0.15;;;8.70;99.90;;;;;;4961459;28;20026;-75
2022/02/04 16:44:54;;;;;;;0.20;0.20;;;8.60;99.90;;;;;;4961403;28;20391;-77
2022/02/04 16:47:20;;;;;;;0.40;0.30;;;8.60;99.90;;;;;;4958988;28;20081;-75
2022/02/04 16:49:48;;;;;;;1.08;0.40;;;8.50;99.90;;;;;;4959757;28;20031;-79
2022/02/04 16:52:15;;;;;;;1.02;0.40;;;8.50;99.90;;;;;;4959051;28;20468;-79
2022/02/04 16:54:42;;;;;;;0.57;0.20;;;8.50;99.90;;;;;;4958998;28;20365;-78
2022/02/04 16:57:08;;;;;;;1.08;0.30;;;8.40;99.90;;;;;;4958987;28;20022;-78
2022/02/04 16:59:34;;;;;;;0.63;0.38;;;8.30;99.90;;;;;;4958683;28;20042;-81
2022/02/04 17:02:00;;;;;;;0.20;0.20;;;8.30;99.90;;;;;;4959502;28;20069;-78
2022/02/04 17:04:26;;;;;;;1.55;0.45;;;8.30;99.90;;;;;;4959157;28;20031;-79
2022/02/04 17:07:05;;;;;;;1.33;0.35;;;8.20;99.90;;;;;;4958429;28;20093;-77
2022/02/04 17:09:38;;;;;;;0.55;0.40;;;8.20;99.90;;;;;;4958829;28;20053;-77
2022/02/04 17:12:10;;;;;;;0.20;0.20;;;8.10;99.90;;;;;;4958714;28;20042;-78
2022/02/04 17:14:36;;;;;;;0.80;0.40;;;8.10;99.90;;;;;;4958276;28;20085;-78
2022/02/04 17:17:04;;;;;;;1.88;0.30;;;8.10;99.90;;;;;;4975772;28;20034;-78
2022/02/04 17:19:38;;;;;;;2.50;0.40;;;8.10;99.90;;;;;;4958843;28;20042;-78
2022/02/04 17:22:05;;;;;;;0.20;0.20;;;8.10;99.90;;;;;;4958890;28;20035;-78
2022/02/04 17:24:32;;;;;;;0.43;0.35;;;8.10;99.90;;;;;;4958702;28;20054;-78
2022/02/04 17:26:59;;;;;;;0.60;0.30;;;8.10;99.90;;;;;;4958519;28;20022;-78
2022/02/04 17:29:28;;;;;;;0.82;0.32;;;8.10;99.90;;;;;;4958906;28;20133;-78
2022/02/04 17:31:54;;;;;;;0.73;0.40;;;8.10;99.90;;;;;;4975258;28;20372;-78
2022/02/04 17:34:20;;;;;;;0.50;0.20;;;8.10;99.90;;;;;;4975391;28;20092;-75
2022/02/04 17:36:46;;;;;;;0.80;0.32;;;8.10;99.90;;;;;;4973943;28;20035;-77
2022/02/04 17:39:22;;;;;;;1.88;0.50;;;8.10;99.90;;;;;;4957836;28;20035;-77
2022/02/04 17:41:50;;;;;;;0.80;0.40;;;8.10;99.90;;;;;;4957717;28;20035;-77
2022/02/04 17:44:18;;;;;;;0.70;0.40;;;8.10;99.90;;;;;;4958004;28;20456;-75
2022/02/04 17:46:45;;;;;;;0.60;0.43;;;8.10;99.90;;;;;;4957257;28;20027;-74
2022/02/04 17:49:44;;;;;;;0.98;0.60;;;8.10;99.90;;;;;;4956931;28;20034;-74
2022/02/04 17:52:14;;;;;;;0.80;0.50;;;8.10;99.90;;;;;;4973170;28;20400;-74
2022/02/04 17:54:50;;;;;;;0.93;0.50;;;8.10;99.90;;;;;;4957062;28;20023;-74
2022/02/04 17:57:21;;;;;;;1.38;0.50;;;8.00;99.90;;;;;;4957317;28;20057;-75
2022/02/04 18:08:09;;;;;;;0.70;0.52;;;8.10;99.90;;;;;;4959418;28;20121;-75
2022/02/04 18:10:36;;;;;;;0.98;0.52;;;8.20;99.90;;;;;;4955452;28;20117;-75
2022/02/04 18:13:04;;;;;;;0.77;0.52;;;8.20;99.90;;;;;;4958447;28;20039;-76
2022/02/04 18:15:30;;;;;;;0.40;0.30;;;8.20;99.90;;;;;;4957870;28;20058;-75
2022/02/04 18:17:56;;;;;;;1.20;0.60;;;8.20;99.90;;;;;;4958551;28;20033;-75
2022/02/04 18:20:21;;;;;;;2.25;0.60;;;8.20;99.90;;;;;;4974731;28;20450;-76
2022/02/04 18:22:49;;;;;;;1.15;0.70;;;8.20;99.90;;;;;;4954049;28;20499;-76
2022/02/04 18:25:15;;;;;;;1.67;0.50;;;8.20;99.90;;;;;;4957318;28;20471;-76
2022/02/04 18:27:46;;;;;;;0.77;0.40;;;8.30;99.90;;;;;;4952559;28;20023;-76
2022/02/04 18:30:14;;;;;;;1.00;0.50;;;8.30;99.90;;;;;;4959054;28;20081;-74
2022/02/04 18:32:45;;;;;;;1.80;0.73;;;8.30;99.90;;;;;;4956990;28;20063;-73
2022/02/04 18:35:10;;;;;;;0.70;0.57;;;8.30;99.90;;;;;;4973494;28;20114;-73
2022/02/04 18:37:40;;;;;;;1.13;0.60;;;8.30;99.90;;;;;;4956356;28;20449;-74
2022/02/04 18:45:23;;;;;;;1.42;0.68;;;8.30;99.90;;;;;;4973883;28;20034;-73
2022/02/04 18:50:39;;;;;;;0.77;0.60;;;8.30;99.90;;;;;;4973887;28;20114;-74
2022/02/04 18:58:09;;;;;;;1.20;0.70;;;8.30;99.90;;;;;;4973039;28;20031;-75
2022/02/04 19:00:35;;;;;;;1.80;0.60;;;8.30;99.90;;;;;;4957282;28;20054;-73
2022/02/04 19:03:05;;;;;;;1.25;0.50;;;8.40;99.90;;;;;;4957760;28;20042;-74
2022/02/04 19:05:36;;;;;;;1.30;0.60;;;8.40;99.90;;;;;;4954384;28;20034;-73
2022/02/04 19:08:11;;;;;;;1.23;0.52;;;8.40;99.90;;;;;;4956666;28;20048;-74
2022/02/04 19:10:38;;;;;;;1.02;0.40;;;8.40;99.90;;;;;;4971732;28;20035;-80
2022/02/04 19:13:20;;;;;;;0.77;0.50;;;8.40;99.90;;;;;;4957923;28;20104;-75
2022/02/04 19:16:12;;;;;;;0.88;0.40;;;8.40;99.90;;;;;;4958185;28;20038;-75
2022/02/04 19:18:56;;;;;;;0.80;0.60;;;8.40;99.90;;;;;;4974797;28;20088;-77
2022/02/04 19:21:39;;;;;;;0.75;0.55;;;8.50;99.90;;;;;;4960722;28;20031;-77
2022/02/04 19:24:05;;;;;;;0.77;0.55;;;8.40;99.90;;;;;;4977479;28;20340;-77
2022/02/04 19:26:31;;;;;;;0.65;0.38;;;8.50;99.90;;;;;;4960177;28;20023;-76
2022/02/04 19:28:57;;;;;;;1.40;0.70;;;8.50;99.90;;;;;;4959362;28;20324;-77
2022/02/04 19:31:24;;;;;;;0.68;0.50;;;8.50;99.90;;;;;;4959926;28;20467;-77
2022/02/04 19:33:50;;;;;;;1.25;0.50;;;8.50;99.90;;;;;;4959363;28;20038;-77
2022/02/04 19:36:16;;;;;;;0.65;0.40;;;8.50;99.90;;;;;;4977588;28;20019;-78
2022/02/04 19:38:42;;;;;;;0.55;0.30;;;8.40;99.90;;;;;;4960204;28;20037;-78
2022/02/04 19:41:13;;;;;;;1.10;0.45;;;8.50;99.90;;;;;;4960408;28;20039;-75
2022/02/04 19:43:42;;;;;;;0.50;0.50;;;8.50;99.90;;;;;;4977548;28;20054;-79
2022/02/04 19:46:15;;;;;;;0.50;0.30;;;8.50;99.90;;;;;;4960675;28;20027;-79
2022/02/04 19:48:51;;;;;;;2.03;0.60;;;8.50;99.90;;;;;;4960373;28;20035;-84
2022/02/04 20:23:36;;;;;;;2.42;0.70;;;8.50;99.90;;;;;;4975998;28;20086;-75
2022/02/04 20:26:04;;;;;;;1.60;0.40;;;8.50;99.90;;;;;;4957932;28;20035;-75
2022/02/04 20:28:29;;;;;;;1.75;0.40;;;8.50;99.90;;;;;;4958980;28;20039;-75
2022/02/04 20:30:55;;;;;;;0.77;0.50;;;8.40;99.90;;;;;;4958223;28;20467;-77
2022/02/04 20:33:21;;;;;;;2.85;0.80;;;8.40;99.90;;;;;;4958663;28;20031;-76
2022/02/04 20:35:50;;;;;;;1.13;0.50;;;8.40;99.90;;;;;;4975509;28;20491;-76
2022/02/04 20:38:19;;;;;;;0.93;0.70;;;8.30;99.90;;;;;;4958295;28;20074;-76